sensor_id;sensor_type;location;lat;lon;timestamp;P1;durP1;ratioP1;P2;durP2;ratioP2
70322;SDS011;57735;56.264;43.898;2022-11-30T00:01:17;27.05;;;8.77;;
70322;SDS011;57735;56.264;43.898;2022-11-30T00:03:53;25.52;;;9.10;;
70322;SDS011;57735;56.264;43.898;2022-11-30T00:06:25;32.47;;;10.52;;
70322;SDS011;57735;56.264;43.898;2022-11-30T00:08:56;32.90;;;10.38;;
70322;SDS011;57735;56.264;43.898;2022-11-30T00:11:27;28.63;;;8.77;;
70322;SDS011;57735;56.264;43.898;2022-11-30T00:13:58;33.13;;;11.13;;
70322;SDS011;57735;56.264;43.898;2022-11-30T00:16:29;55.55;;;15.50;;
70322;SDS011;57735;56.264;43.898;2022-11-30T00:19:00;50.28;;;16.33;;
70322;SDS011;57735;56.264;43.898;2022-11-30T00:21:33;71.75;;;18.17;;
70322;SDS011;57735;56.264;43.898;2022-11-30T00:24:04;52.78;;;14.95;;
70322;SDS011;57735;56.264;43.898;2022-11-30T00:26:35;57.88;;;16.67;;
70322;SDS011;57735;56.264;43.898;2022-11-30T00:29:06;62.15;;;17.77;;
70322;SDS011;57735;56.264;43.898;2022-11-30T00:31:36;63.15;;;19.27;;
70322;SDS011;57735;56.264;43.898;2022-11-30T00:34:07;58.53;;;18.55;;
70322;SDS011;57735;56.264;43.898;2022-11-30T00:36:38;62.65;;;17.58;;
70322;SDS011;57735;56.264;43.898;2022-11-30T00:39:09;58.97;;;17.13;;
70322;SDS011;57735;56.264;43.898;2022-11-30T00:41:40;55.90;;;16.17;;
70322;SDS011;57735;56.264;43.898;2022-11-30T00:44:13;56.92;;;17.48;;
70322;SDS011;57735;56.264;43.898;2022-11-30T00:46:46;62.83;;;17.90;;
70322;SDS011;57735;56.264;43.898;2022-11-30T00:49:17;51.85;;;16.10;;
70322;SDS011;57735;56.264;43.898;2022-11-30T00:51:50;63.47;;;16.98;;
70322;SDS011;57735;56.264;43.898;2022-11-30T00:54:21;50.60;;;17.55;;
70322;SDS011;57735;56.264;43.898;2022-11-30T00:56:52;58.22;;;18.63;;
70322;SDS011;57735;56.264;43.898;2022-11-30T00:59:26;64.47;;;17.83;;
70322;SDS011;57735;56.264;43.898;2022-11-30T01:01:57;55.60;;;16.90;;
70322;SDS011;57735;56.264;43.898;2022-11-30T01:04:27;50.38;;;14.52;;
70322;SDS011;57735;56.264;43.898;2022-11-30T01:06:58;51.38;;;14.70;;
70322;SDS011;57735;56.264;43.898;2022-11-30T01:09:31;44.05;;;14.48;;
70322;SDS011;57735;56.264;43.898;2022-11-30T01:12:02;44.22;;;13.80;;
70322;SDS011;57735;56.264;43.898;2022-11-30T01:14:36;36.60;;;13.93;;
70322;SDS011;57735;56.264;43.898;2022-11-30T01:17:06;45.30;;;15.07;;
70322;SDS011;57735;56.264;43.898;2022-11-30T01:19:37;34.92;;;11.52;;
70322;SDS011;57735;56.264;43.898;2022-11-30T01:22:08;44.03;;;13.60;;
70322;SDS011;57735;56.264;43.898;2022-11-30T01:24:39;48.15;;;14.45;;
70322;SDS011;57735;56.264;43.898;2022-11-30T01:27:10;41.58;;;12.57;;
70322;SDS011;57735;56.264;43.898;2022-11-30T01:29:43;52.78;;;14.27;;
70322;SDS011;57735;56.264;43.898;2022-11-30T01:32:13;36.92;;;12.38;;
70322;SDS011;57735;56.264;43.898;2022-11-30T01:34:44;37.63;;;12.05;;
70322;SDS011;57735;56.264;43.898;2022-11-30T01:37:15;38.38;;;11.35;;
70322;SDS011;57735;56.264;43.898;2022-11-30T01:39:49;41.37;;;11.93;;
70322;SDS011;57735;56.264;43.898;2022-11-30T01:42:23;36.25;;;12.20;;
70322;SDS011;57735;56.264;43.898;2022-11-30T01:44:57;39.72;;;12.85;;
70322;SDS011;57735;56.264;43.898;2022-11-30T01:47:32;47.65;;;12.77;;
70322;SDS011;57735;56.264;43.898;2022-11-30T01:50:12;33.35;;;10.55;;
70322;SDS011;57735;56.264;43.898;2022-11-30T01:52:47;38.28;;;13.57;;
70322;SDS011;57735;56.264;43.898;2022-11-30T01:55:24;45.85;;;11.25;;
70322;SDS011;57735;56.264;43.898;2022-11-30T01:58:12;32.17;;;11.30;;
70322;SDS011;57735;56.264;43.898;2022-11-30T02:00:47;37.40;;;11.35;;
70322;SDS011;57735;56.264;43.898;2022-11-30T02:06:07;38.22;;;13.05;;
70322;SDS011;57735;56.264;43.898;2022-11-30T02:08:37;40.65;;;13.13;;
70322;SDS011;57735;56.264;43.898;2022-11-30T02:11:10;45.70;;;15.38;;
70322;SDS011;57735;56.264;43.898;2022-11-30T02:16:46;53.10;;;14.90;;
70322;SDS011;57735;56.264;43.898;2022-11-30T02:19:47;42.87;;;16.37;;
70322;SDS011;57735;56.264;43.898;2022-11-30T02:25:16;47.08;;;17.20;;
70322;SDS011;57735;56.264;43.898;2022-11-30T02:30:53;58.67;;;22.60;;
70322;SDS011;57735;56.264;43.898;2022-11-30T02:33:28;64.85;;;24.10;;
70322;SDS011;57735;56.264;43.898;2022-11-30T02:36:03;65.95;;;23.98;;
70322;SDS011;57735;56.264;43.898;2022-11-30T02:38:36;65.45;;;21.85;;
70322;SDS011;57735;56.264;43.898;2022-11-30T02:41:09;70.55;;;23.42;;
70322;SDS011;57735;56.264;43.898;2022-11-30T02:43:40;72.47;;;22.75;;
70322;SDS011;57735;56.264;43.898;2022-11-30T02:49:28;48.47;;;19.20;;
70322;SDS011;57735;56.264;43.898;2022-11-30T02:52:04;49.80;;;15.15;;
70322;SDS011;57735;56.264;43.898;2022-11-30T02:54:37;48.92;;;14.32;;
70322;SDS011;57735;56.264;43.898;2022-11-30T02:57:08;51.58;;;15.65;;
70322;SDS011;57735;56.264;43.898;2022-11-30T02:59:39;47.88;;;16.48;;
70322;SDS011;57735;56.264;43.898;2022-11-30T03:02:10;57.35;;;17.17;;
70322;SDS011;57735;56.264;43.898;2022-11-30T03:04:41;60.55;;;20.50;;
70322;SDS011;57735;56.264;43.898;2022-11-30T03:07:12;47.72;;;16.30;;
70322;SDS011;57735;56.264;43.898;2022-11-30T03:09:43;52.30;;;16.50;;
70322;SDS011;57735;56.264;43.898;2022-11-30T03:12:14;58.95;;;19.83;;
70322;SDS011;57735;56.264;43.898;2022-11-30T03:14:44;54.17;;;17.70;;
70322;SDS011;57735;56.264;43.898;2022-11-30T03:17:15;54.72;;;17.40;;
70322;SDS011;57735;56.264;43.898;2022-11-30T03:19:46;51.45;;;16.63;;
70322;SDS011;57735;56.264;43.898;2022-11-30T03:22:19;64.43;;;20.42;;
70322;SDS011;57735;56.264;43.898;2022-11-30T03:24:50;60.85;;;19.33;;
70322;SDS011;57735;56.264;43.898;2022-11-30T03:27:21;64.32;;;19.05;;
70322;SDS011;57735;56.264;43.898;2022-11-30T03:29:52;60.72;;;18.13;;
70322;SDS011;57735;56.264;43.898;2022-11-30T03:32:22;50.95;;;16.98;;
70322;SDS011;57735;56.264;43.898;2022-11-30T03:34:53;54.90;;;17.65;;
70322;SDS011;57735;56.264;43.898;2022-11-30T03:37:24;54.58;;;15.82;;
70322;SDS011;57735;56.264;43.898;2022-11-30T03:39:55;49.22;;;15.85;;
70322;SDS011;57735;56.264;43.898;2022-11-30T03:42:26;60.80;;;18.48;;
70322;SDS011;57735;56.264;43.898;2022-11-30T03:44:56;65.35;;;18.80;;
70322;SDS011;57735;56.264;43.898;2022-11-30T03:47:27;68.10;;;20.42;;
70322;SDS011;57735;56.264;43.898;2022-11-30T03:49:58;66.25;;;18.20;;
70322;SDS011;57735;56.264;43.898;2022-11-30T03:52:29;57.15;;;18.33;;
70322;SDS011;57735;56.264;43.898;2022-11-30T03:54:59;71.40;;;21.52;;
70322;SDS011;57735;56.264;43.898;2022-11-30T03:57:30;64.40;;;20.77;;
70322;SDS011;57735;56.264;43.898;2022-11-30T04:00:02;41.50;;;13.32;;
70322;SDS011;57735;56.264;43.898;2022-11-30T04:02:36;72.07;;;19.83;;
70322;SDS011;57735;56.264;43.898;2022-11-30T04:05:07;56.75;;;19.10;;
70322;SDS011;57735;56.264;43.898;2022-11-30T04:07:38;65.28;;;19.02;;
70322;SDS011;57735;56.264;43.898;2022-11-30T04:10:09;67.95;;;19.73;;
70322;SDS011;57735;56.264;43.898;2022-11-30T04:12:40;57.92;;;19.10;;
70322;SDS011;57735;56.264;43.898;2022-11-30T04:15:11;66.95;;;21.40;;
70322;SDS011;57735;56.264;43.898;2022-11-30T04:17:42;60.00;;;17.75;;
70322;SDS011;57735;56.264;43.898;2022-11-30T04:20:13;59.72;;;20.38;;
70322;SDS011;57735;56.264;43.898;2022-11-30T04:22:43;64.05;;;20.25;;
70322;SDS011;57735;56.264;43.898;2022-11-30T04:25:14;66.88;;;19.23;;
70322;SDS011;57735;56.264;43.898;2022-11-30T04:27:48;63.97;;;19.93;;
70322;SDS011;57735;56.264;43.898;2022-11-30T04:30:19;70.40;;;21.75;;
70322;SDS011;57735;56.264;43.898;2022-11-30T04:32:49;55.10;;;18.10;;
70322;SDS011;57735;56.264;43.898;2022-11-30T04:35:20;72.35;;;19.48;;
70322;SDS011;57735;56.264;43.898;2022-11-30T04:37:51;64.63;;;16.98;;
70322;SDS011;57735;56.264;43.898;2022-11-30T04:40:22;69.85;;;19.48;;
70322;SDS011;57735;56.264;43.898;2022-11-30T04:42:53;66.13;;;17.90;;
70322;SDS011;57735;56.264;43.898;2022-11-30T04:45:24;64.80;;;19.33;;
70322;SDS011;57735;56.264;43.898;2022-11-30T04:47:54;68.50;;;19.50;;
70322;SDS011;57735;56.264;43.898;2022-11-30T04:50:25;67.03;;;18.88;;
70322;SDS011;57735;56.264;43.898;2022-11-30T04:52:56;68.72;;;19.00;;
70322;SDS011;57735;56.264;43.898;2022-11-30T04:55:30;61.53;;;19.27;;
70322;SDS011;57735;56.264;43.898;2022-11-30T04:58:01;63.90;;;19.98;;
70322;SDS011;57735;56.264;43.898;2022-11-30T05:00:31;26.83;;;8.63;;
70322;SDS011;57735;56.264;43.898;2022-11-30T05:03:03;64.10;;;20.02;;
70322;SDS011;57735;56.264;43.898;2022-11-30T05:05:33;49.55;;;16.00;;
70322;SDS011;57735;56.264;43.898;2022-11-30T05:08:04;47.75;;;14.32;;
70322;SDS011;57735;56.264;43.898;2022-11-30T05:10:35;69.97;;;18.17;;
70322;SDS011;57735;56.264;43.898;2022-11-30T05:13:14;63.45;;;19.42;;
70322;SDS011;57735;56.264;43.898;2022-11-30T05:15:44;74.40;;;19.77;;
70322;SDS011;57735;56.264;43.898;2022-11-30T05:18:16;66.68;;;19.75;;
70322;SDS011;57735;56.264;43.898;2022-11-30T05:20:47;65.68;;;19.30;;
70322;SDS011;57735;56.264;43.898;2022-11-30T05:23:25;66.15;;;18.40;;
70322;SDS011;57735;56.264;43.898;2022-11-30T05:25:55;49.58;;;15.63;;
70322;SDS011;57735;56.264;43.898;2022-11-30T05:28:26;71.13;;;18.52;;
70322;SDS011;57735;56.264;43.898;2022-11-30T05:31:00;57.67;;;17.27;;
70322;SDS011;57735;56.264;43.898;2022-11-30T05:33:34;59.15;;;17.67;;
70322;SDS011;57735;56.264;43.898;2022-11-30T05:36:05;59.35;;;17.85;;
70322;SDS011;57735;56.264;43.898;2022-11-30T05:38:36;60.05;;;18.02;;
70322;SDS011;57735;56.264;43.898;2022-11-30T05:41:07;47.05;;;16.40;;
70322;SDS011;57735;56.264;43.898;2022-11-30T05:43:38;57.65;;;18.77;;
70322;SDS011;57735;56.264;43.898;2022-11-30T05:46:09;65.05;;;19.45;;
70322;SDS011;57735;56.264;43.898;2022-11-30T05:48:40;60.88;;;17.98;;
70322;SDS011;57735;56.264;43.898;2022-11-30T05:51:12;63.63;;;17.42;;
70322;SDS011;57735;56.264;43.898;2022-11-30T05:53:47;56.13;;;18.05;;
70322;SDS011;57735;56.264;43.898;2022-11-30T05:56:19;63.92;;;19.83;;
70322;SDS011;57735;56.264;43.898;2022-11-30T05:58:51;75.97;;;19.83;;
70322;SDS011;57735;56.264;43.898;2022-11-30T06:01:25;67.10;;;19.73;;
70322;SDS011;57735;56.264;43.898;2022-11-30T06:03:57;63.00;;;21.00;;
70322;SDS011;57735;56.264;43.898;2022-11-30T06:06:27;67.82;;;19.92;;
70322;SDS011;57735;56.264;43.898;2022-11-30T06:08:58;68.13;;;19.08;;
70322;SDS011;57735;56.264;43.898;2022-11-30T06:11:29;57.65;;;19.08;;
70322;SDS011;57735;56.264;43.898;2022-11-30T06:14:00;70.75;;;19.58;;
70322;SDS011;57735;56.264;43.898;2022-11-30T06:16:31;69.55;;;19.40;;
70322;SDS011;57735;56.264;43.898;2022-11-30T06:19:02;64.15;;;19.00;;
70322;SDS011;57735;56.264;43.898;2022-11-30T06:21:32;77.82;;;21.33;;
70322;SDS011;57735;56.264;43.898;2022-11-30T06:24:06;73.70;;;20.45;;
70322;SDS011;57735;56.264;43.898;2022-11-30T06:26:38;57.58;;;18.05;;
70322;SDS011;57735;56.264;43.898;2022-11-30T06:29:09;71.13;;;20.13;;
70322;SDS011;57735;56.264;43.898;2022-11-30T06:31:39;80.72;;;22.10;;
70322;SDS011;57735;56.264;43.898;2022-11-30T06:34:10;66.50;;;19.30;;
70322;SDS011;57735;56.264;43.898;2022-11-30T06:36:41;59.40;;;18.05;;
70322;SDS011;57735;56.264;43.898;2022-11-30T06:39:12;71.72;;;19.30;;
70322;SDS011;57735;56.264;43.898;2022-11-30T06:41:43;77.07;;;23.42;;
70322;SDS011;57735;56.264;43.898;2022-11-30T06:44:17;90.38;;;26.88;;
70322;SDS011;57735;56.264;43.898;2022-11-30T06:46:48;84.07;;;25.65;;
70322;SDS011;57735;56.264;43.898;2022-11-30T06:49:18;77.18;;;22.98;;
70322;SDS011;57735;56.264;43.898;2022-11-30T06:51:49;89.25;;;24.45;;
70322;SDS011;57735;56.264;43.898;2022-11-30T06:54:20;81.03;;;21.50;;
70322;SDS011;57735;56.264;43.898;2022-11-30T06:56:53;68.57;;;19.77;;
70322;SDS011;57735;56.264;43.898;2022-11-30T06:59:25;88.05;;;24.35;;
70322;SDS011;57735;56.264;43.898;2022-11-30T07:01:56;73.90;;;20.67;;
70322;SDS011;57735;56.264;43.898;2022-11-30T07:04:27;74.78;;;22.85;;
70322;SDS011;57735;56.264;43.898;2022-11-30T07:06:58;79.38;;;22.45;;
70322;SDS011;57735;56.264;43.898;2022-11-30T07:09:29;75.40;;;24.63;;
70322;SDS011;57735;56.264;43.898;2022-11-30T07:12:01;88.18;;;24.33;;
70322;SDS011;57735;56.264;43.898;2022-11-30T07:14:33;87.07;;;24.55;;
70322;SDS011;57735;56.264;43.898;2022-11-30T07:17:04;100.70;;;26.75;;
70322;SDS011;57735;56.264;43.898;2022-11-30T07:19:35;85.80;;;25.67;;
70322;SDS011;57735;56.264;43.898;2022-11-30T07:22:06;92.40;;;25.67;;
70322;SDS011;57735;56.264;43.898;2022-11-30T07:24:36;87.65;;;24.58;;
70322;SDS011;57735;56.264;43.898;2022-11-30T07:27:26;86.68;;;23.90;;
70322;SDS011;57735;56.264;43.898;2022-11-30T07:29:56;76.00;;;24.23;;
70322;SDS011;57735;56.264;43.898;2022-11-30T07:32:27;88.63;;;24.50;;
70322;SDS011;57735;56.264;43.898;2022-11-30T07:35:00;87.70;;;25.95;;
70322;SDS011;57735;56.264;43.898;2022-11-30T07:37:31;113.50;;;33.13;;
70322;SDS011;57735;56.264;43.898;2022-11-30T07:40:05;96.88;;;29.70;;
70322;SDS011;57735;56.264;43.898;2022-11-30T07:42:36;90.45;;;28.35;;
70322;SDS011;57735;56.264;43.898;2022-11-30T07:45:07;98.97;;;28.98;;
70322;SDS011;57735;56.264;43.898;2022-11-30T07:47:39;91.88;;;27.05;;
70322;SDS011;57735;56.264;43.898;2022-11-30T07:50:10;70.60;;;20.70;;
70322;SDS011;57735;56.264;43.898;2022-11-30T07:52:41;88.78;;;24.02;;
70322;SDS011;57735;56.264;43.898;2022-11-30T07:55:14;80.28;;;25.25;;
70322;SDS011;57735;56.264;43.898;2022-11-30T07:57:45;79.50;;;22.23;;
70322;SDS011;57735;56.264;43.898;2022-11-30T08:00:16;67.07;;;21.05;;
70322;SDS011;57735;56.264;43.898;2022-11-30T08:02:48;65.45;;;20.80;;
70322;SDS011;57735;56.264;43.898;2022-11-30T08:05:19;78.55;;;22.15;;
70322;SDS011;57735;56.264;43.898;2022-11-30T08:07:54;74.47;;;21.75;;
70322;SDS011;57735;56.264;43.898;2022-11-30T08:10:27;75.82;;;20.80;;
70322;SDS011;57735;56.264;43.898;2022-11-30T08:12:58;73.15;;;22.38;;
70322;SDS011;57735;56.264;43.898;2022-11-30T08:15:31;87.18;;;21.23;;
70322;SDS011;57735;56.264;43.898;2022-11-30T08:18:04;70.35;;;20.92;;
70322;SDS011;57735;56.264;43.898;2022-11-30T08:20:36;73.55;;;23.13;;
70322;SDS011;57735;56.264;43.898;2022-11-30T08:23:07;72.13;;;19.83;;
70322;SDS011;57735;56.264;43.898;2022-11-30T08:25:38;72.00;;;23.30;;
70322;SDS011;57735;56.264;43.898;2022-11-30T08:28:08;72.82;;;23.00;;
70322;SDS011;57735;56.264;43.898;2022-11-30T08:30:39;79.38;;;22.92;;
70322;SDS011;57735;56.264;43.898;2022-11-30T08:33:15;81.05;;;24.63;;
70322;SDS011;57735;56.264;43.898;2022-11-30T08:35:46;78.25;;;25.83;;
70322;SDS011;57735;56.264;43.898;2022-11-30T08:38:17;85.55;;;24.00;;
70322;SDS011;57735;56.264;43.898;2022-11-30T08:40:48;72.00;;;23.90;;
70322;SDS011;57735;56.264;43.898;2022-11-30T08:43:26;84.38;;;24.45;;
70322;SDS011;57735;56.264;43.898;2022-11-30T08:45:57;72.43;;;24.10;;
70322;SDS011;57735;56.264;43.898;2022-11-30T08:48:28;85.93;;;24.90;;
70322;SDS011;57735;56.264;43.898;2022-11-30T08:51:00;90.78;;;26.98;;
70322;SDS011;57735;56.264;43.898;2022-11-30T08:53:32;81.25;;;24.95;;
70322;SDS011;57735;56.264;43.898;2022-11-30T08:56:05;70.55;;;22.48;;
70322;SDS011;57735;56.264;43.898;2022-11-30T08:58:38;83.60;;;25.20;;
70322;SDS011;57735;56.264;43.898;2022-11-30T09:01:13;85.95;;;25.25;;
70322;SDS011;57735;56.264;43.898;2022-11-30T09:03:47;95.20;;;26.80;;
70322;SDS011;57735;56.264;43.898;2022-11-30T09:06:21;82.35;;;24.92;;
70322;SDS011;57735;56.264;43.898;2022-11-30T09:08:54;85.15;;;28.10;;
70322;SDS011;57735;56.264;43.898;2022-11-30T09:11:30;79.38;;;23.90;;
70322;SDS011;57735;56.264;43.898;2022-11-30T09:14:03;95.80;;;26.60;;
70322;SDS011;57735;56.264;43.898;2022-11-30T09:16:34;89.47;;;26.90;;
70322;SDS011;57735;56.264;43.898;2022-11-30T09:19:05;73.07;;;22.17;;
70322;SDS011;57735;56.264;43.898;2022-11-30T09:21:38;73.47;;;24.25;;
70322;SDS011;57735;56.264;43.898;2022-11-30T09:24:09;84.15;;;24.25;;
70322;SDS011;57735;56.264;43.898;2022-11-30T09:26:40;83.45;;;27.30;;
70322;SDS011;57735;56.264;43.898;2022-11-30T09:29:11;80.10;;;23.58;;
70322;SDS011;57735;56.264;43.898;2022-11-30T09:31:41;89.25;;;24.10;;
70322;SDS011;57735;56.264;43.898;2022-11-30T09:34:12;83.60;;;26.92;;
70322;SDS011;57735;56.264;43.898;2022-11-30T09:36:43;84.97;;;27.00;;
70322;SDS011;57735;56.264;43.898;2022-11-30T09:39:14;75.38;;;23.52;;
70322;SDS011;57735;56.264;43.898;2022-11-30T09:44:31;93.40;;;27.02;;
70322;SDS011;57735;56.264;43.898;2022-11-30T09:50:45;97.25;;;27.50;;
70322;SDS011;57735;56.264;43.898;2022-11-30T09:53:26;90.28;;;27.15;;
70322;SDS011;57735;56.264;43.898;2022-11-30T09:56:17;89.30;;;26.73;;
70322;SDS011;57735;56.264;43.898;2022-11-30T09:59:05;91.85;;;26.80;;
70322;SDS011;57735;56.264;43.898;2022-11-30T10:01:51;77.95;;;26.23;;
70322;SDS011;57735;56.264;43.898;2022-11-30T10:12:44;90.13;;;27.83;;
70322;SDS011;57735;56.264;43.898;2022-11-30T10:15:28;79.55;;;25.70;;
70322;SDS011;57735;56.264;43.898;2022-11-30T10:18:32;82.57;;;26.48;;
70322;SDS011;57735;56.264;43.898;2022-11-30T10:26:33;98.38;;;27.85;;
70322;SDS011;57735;56.264;43.898;2022-11-30T10:29:17;89.47;;;28.17;;
70322;SDS011;57735;56.264;43.898;2022-11-30T10:32:28;89.95;;;26.80;;
70322;SDS011;57735;56.264;43.898;2022-11-30T10:37:45;70.40;;;22.17;;
70322;SDS011;57735;56.264;43.898;2022-11-30T10:45:58;80.00;;;27.52;;
70322;SDS011;57735;56.264;43.898;2022-11-30T10:48:33;95.53;;;28.17;;
70322;SDS011;57735;56.264;43.898;2022-11-30T10:51:10;87.18;;;28.85;;
70322;SDS011;57735;56.264;43.898;2022-11-30T10:53:44;104.78;;;33.38;;
70322;SDS011;57735;56.264;43.898;2022-11-30T10:56:15;83.80;;;26.50;;
70322;SDS011;57735;56.264;43.898;2022-11-30T10:58:51;83.50;;;26.50;;
70322;SDS011;57735;56.264;43.898;2022-11-30T11:01:35;115.10;;;36.00;;
70322;SDS011;57735;56.264;43.898;2022-11-30T11:12:13;105.35;;;33.55;;
70322;SDS011;57735;56.264;43.898;2022-11-30T11:17:47;104.65;;;33.35;;
70322;SDS011;57735;56.264;43.898;2022-11-30T11:20:32;90.15;;;31.42;;
70322;SDS011;57735;56.264;43.898;2022-11-30T11:23:04;88.18;;;31.00;;
70322;SDS011;57735;56.264;43.898;2022-11-30T11:25:36;103.93;;;33.25;;
70322;SDS011;57735;56.264;43.898;2022-11-30T11:28:13;109.82;;;34.83;;
70322;SDS011;57735;56.264;43.898;2022-11-30T11:30:48;101.32;;;31.45;;
70322;SDS011;57735;56.264;43.898;2022-11-30T11:33:22;113.55;;;35.40;;
70322;SDS011;57735;56.264;43.898;2022-11-30T11:36:12;113.17;;;37.03;;
70322;SDS011;57735;56.264;43.898;2022-11-30T11:38:45;113.13;;;35.88;;
70322;SDS011;57735;56.264;43.898;2022-11-30T11:46:36;112.07;;;38.97;;
70322;SDS011;57735;56.264;43.898;2022-11-30T11:49:34;102.65;;;34.70;;
70322;SDS011;57735;56.264;43.898;2022-11-30T11:54:57;116.13;;;38.60;;
70322;SDS011;57735;56.264;43.898;2022-11-30T11:57:41;111.13;;;36.17;;
70322;SDS011;57735;56.264;43.898;2022-11-30T12:00:19;108.55;;;34.95;;
70322;SDS011;57735;56.264;43.898;2022-11-30T12:03:05;110.90;;;35.53;;
70322;SDS011;57735;56.264;43.898;2022-11-30T12:05:55;106.75;;;35.85;;
70322;SDS011;57735;56.264;43.898;2022-11-30T12:08:49;115.53;;;37.05;;
70322;SDS011;57735;56.264;43.898;2022-11-30T12:11:37;113.07;;;35.20;;
70322;SDS011;57735;56.264;43.898;2022-11-30T12:14:12;114.43;;;34.70;;
70322;SDS011;57735;56.264;43.898;2022-11-30T12:20:05;107.47;;;35.35;;
70322;SDS011;57735;56.264;43.898;2022-11-30T12:23:01;123.05;;;36.17;;
70322;SDS011;57735;56.264;43.898;2022-11-30T12:26:04;99.97;;;33.13;;
70322;SDS011;57735;56.264;43.898;2022-11-30T12:40:57;107.50;;;35.17;;
70322;SDS011;57735;56.264;43.898;2022-11-30T12:46:55;117.07;;;38.10;;
70322;SDS011;57735;56.264;43.898;2022-11-30T12:49:42;119.10;;;35.47;;
70322;SDS011;57735;56.264;43.898;2022-11-30T13:01:32;115.28;;;37.08;;
70322;SDS011;57735;56.264;43.898;2022-11-30T13:04:36;109.78;;;37.22;;
70322;SDS011;57735;56.264;43.898;2022-11-30T13:07:28;119.68;;;38.70;;
70322;SDS011;57735;56.264;43.898;2022-11-30T13:12:59;123.20;;;37.70;;
70322;SDS011;57735;56.264;43.898;2022-11-30T13:15:33;111.25;;;35.60;;
70322;SDS011;57735;56.264;43.898;2022-11-30T13:18:05;127.55;;;41.90;;
70322;SDS011;57735;56.264;43.898;2022-11-30T13:27:41;139.27;;;44.28;;
70322;SDS011;57735;56.264;43.898;2022-11-30T13:33:35;123.15;;;40.72;;
70322;SDS011;57735;56.264;43.898;2022-11-30T13:36:05;124.95;;;37.42;;
70322;SDS011;57735;56.264;43.898;2022-11-30T13:39:17;135.55;;;39.33;;
70322;SDS011;57735;56.264;43.898;2022-11-30T13:44:35;119.38;;;42.83;;
70322;SDS011;57735;56.264;43.898;2022-11-30T13:49:59;149.82;;;53.08;;
70322;SDS011;57735;56.264;43.898;2022-11-30T13:58:05;151.53;;;47.37;;
70322;SDS011;57735;56.264;43.898;2022-11-30T14:03:42;132.45;;;40.67;;
70322;SDS011;57735;56.264;43.898;2022-11-30T14:09:13;111.83;;;34.93;;
70322;SDS011;57735;56.264;43.898;2022-11-30T14:14:38;102.70;;;28.83;;
70322;SDS011;57735;56.264;43.898;2022-11-30T14:17:20;96.28;;;31.15;;
70322;SDS011;57735;56.264;43.898;2022-11-30T14:20:06;104.53;;;34.03;;
70322;SDS011;57735;56.264;43.898;2022-11-30T14:22:44;101.32;;;32.50;;
70322;SDS011;57735;56.264;43.898;2022-11-30T14:25:16;104.88;;;33.88;;
70322;SDS011;57735;56.264;43.898;2022-11-30T14:27:50;108.57;;;32.63;;
70322;SDS011;57735;56.264;43.898;2022-11-30T14:30:24;109.82;;;33.92;;
70322;SDS011;57735;56.264;43.898;2022-11-30T14:32:57;97.22;;;33.15;;
70322;SDS011;57735;56.264;43.898;2022-11-30T14:35:34;92.72;;;30.98;;
70322;SDS011;57735;56.264;43.898;2022-11-30T14:38:24;121.22;;;35.10;;
70322;SDS011;57735;56.264;43.898;2022-11-30T14:40:58;97.13;;;33.95;;
70322;SDS011;57735;56.264;43.898;2022-11-30T14:43:29;117.40;;;35.85;;
70322;SDS011;57735;56.264;43.898;2022-11-30T14:46:04;100.28;;;34.92;;
70322;SDS011;57735;56.264;43.898;2022-11-30T14:48:35;119.80;;;34.90;;
70322;SDS011;57735;56.264;43.898;2022-11-30T14:51:08;112.55;;;35.78;;
70322;SDS011;57735;56.264;43.898;2022-11-30T14:53:52;113.45;;;35.38;;
70322;SDS011;57735;56.264;43.898;2022-11-30T14:56:42;112.38;;;33.00;;
70322;SDS011;57735;56.264;43.898;2022-11-30T15:02:18;101.55;;;33.40;;
70322;SDS011;57735;56.264;43.898;2022-11-30T15:05:03;104.90;;;29.85;;
70322;SDS011;57735;56.264;43.898;2022-11-30T15:07:36;103.82;;;33.05;;
70322;SDS011;57735;56.264;43.898;2022-11-30T15:10:11;109.05;;;30.83;;
70322;SDS011;57735;56.264;43.898;2022-11-30T15:12:45;99.82;;;32.30;;
70322;SDS011;57735;56.264;43.898;2022-11-30T15:15:23;97.53;;;32.83;;
70322;SDS011;57735;56.264;43.898;2022-11-30T15:17:58;105.70;;;34.90;;
70322;SDS011;57735;56.264;43.898;2022-11-30T15:20:43;120.00;;;32.97;;
70322;SDS011;57735;56.264;43.898;2022-11-30T15:23:19;99.45;;;30.98;;
70322;SDS011;57735;56.264;43.898;2022-11-30T15:25:55;98.00;;;28.45;;
70322;SDS011;57735;56.264;43.898;2022-11-30T15:28:39;101.20;;;32.17;;
70322;SDS011;57735;56.264;43.898;2022-11-30T15:31:13;97.32;;;32.83;;
70322;SDS011;57735;56.264;43.898;2022-11-30T15:33:46;93.65;;;30.60;;
70322;SDS011;57735;56.264;43.898;2022-11-30T15:36:23;92.38;;;31.48;;
70322;SDS011;57735;56.264;43.898;2022-11-30T15:38:54;99.45;;;32.53;;
70322;SDS011;57735;56.264;43.898;2022-11-30T15:41:33;96.00;;;32.28;;
70322;SDS011;57735;56.264;43.898;2022-11-30T15:44:05;104.70;;;31.65;;
70322;SDS011;57735;56.264;43.898;2022-11-30T15:46:36;103.40;;;34.15;;
70322;SDS011;57735;56.264;43.898;2022-11-30T15:51:45;91.40;;;31.55;;
70322;SDS011;57735;56.264;43.898;2022-11-30T15:54:17;96.57;;;32.22;;
70322;SDS011;57735;56.264;43.898;2022-11-30T15:57:17;101.45;;;32.53;;
70322;SDS011;57735;56.264;43.898;2022-11-30T16:00:03;99.95;;;33.28;;
70322;SDS011;57735;56.264;43.898;2022-11-30T16:02:48;104.88;;;32.55;;
70322;SDS011;57735;56.264;43.898;2022-11-30T16:07:56;79.65;;;27.33;;
70322;SDS011;57735;56.264;43.898;2022-11-30T16:10:36;87.85;;;30.00;;
70322;SDS011;57735;56.264;43.898;2022-11-30T16:13:13;100.47;;;31.80;;
70322;SDS011;57735;56.264;43.898;2022-11-30T16:15:46;91.07;;;30.05;;
70322;SDS011;57735;56.264;43.898;2022-11-30T16:18:20;88.65;;;30.50;;
70322;SDS011;57735;56.264;43.898;2022-11-30T16:20:58;90.18;;;28.92;;
70322;SDS011;57735;56.264;43.898;2022-11-30T16:23:33;94.75;;;32.05;;
70322;SDS011;57735;56.264;43.898;2022-11-30T16:26:04;100.20;;;31.08;;
70322;SDS011;57735;56.264;43.898;2022-11-30T16:28:38;106.72;;;32.75;;
70322;SDS011;57735;56.264;43.898;2022-11-30T16:31:16;91.32;;;31.92;;
70322;SDS011;57735;56.264;43.898;2022-11-30T16:33:49;93.50;;;31.05;;
70322;SDS011;57735;56.264;43.898;2022-11-30T16:36:20;93.80;;;32.05;;
70322;SDS011;57735;56.264;43.898;2022-11-30T16:38:51;103.10;;;31.67;;
70322;SDS011;57735;56.264;43.898;2022-11-30T16:41:23;94.25;;;30.50;;
70322;SDS011;57735;56.264;43.898;2022-11-30T16:43:55;94.63;;;30.27;;
70322;SDS011;57735;56.264;43.898;2022-11-30T16:46:27;97.40;;;31.60;;
70322;SDS011;57735;56.264;43.898;2022-11-30T16:48:59;99.20;;;31.10;;
70322;SDS011;57735;56.264;43.898;2022-11-30T16:51:30;105.47;;;30.90;;
70322;SDS011;57735;56.264;43.898;2022-11-30T16:54:04;93.60;;;31.90;;
70322;SDS011;57735;56.264;43.898;2022-11-30T16:56:35;90.38;;;30.63;;
70322;SDS011;57735;56.264;43.898;2022-11-30T16:59:06;101.70;;;32.70;;